Dades meteomassalio
Diari Summary for Febrer 24, 2017 Units:  English    Metric   Both
« Previous Day
Next Day »
Diari Semanal Mensual Anual Personalitzat
  Maxima: Minima: Mijana:
Temperatura: TemperatureC °F 7.2 °F 10.4 °F
Rosada: DewpointC °F 0.9 °F 5.6 °F
Humitat: Humidity % 54 % 73 %
Velocitat del vent: WindSpeedKMH mph 0.0 mph 17.6 mph
Racha vent: WindSpeedGustKMH mph - -
Vent:- - WNW
Pressio: PressurehPa in 1013.4 in -
Pluja: 0.5 in    
Historical Graphs
 
 
Tabular Data for Febrer 24, 2017
Time Temperature Dew Point Pressure Wind Wind Speed Wind Gust Humidity Rainfall Rate (Hourly) solar Conditions
TemperatureC °F DewpointC °F PressurehPa in Calm     Humidity % HourlyPrecipMM in SolarRadiationWatts/m^2 W/m2 Conditions
00:03 8.4 °F 7.1 °F 1015.1 in Calm     91 % 0.0 in 0.0 W/m2 CLR
00:08 8.3 °F 6.9 °F 1015.1 in Calm     91 % 0.0 in 0.0 W/m2 CLR
00:13 8.3 °F 6.9 °F 1015.1 in Calm     91 % 0.0 in 0.0 W/m2 CLR
00:18 8.2 °F 6.8 °F 1015.1 in Calm     91 % 0.0 in 0.0 W/m2 CLR
00:23 8.0 °F 6.6 °F 1015.1 in Calm     91 % 0.0 in 0.0 W/m2 CLR
00:28 8.1 °F 6.9 °F 1015.1 in NW 1.9 mph   92 % 0.0 in 0.0 W/m2 CLR
00:33 8.2 °F 6.8 °F 1015.1 in Calm     91 % 0.0 in 0.0 W/m2 CLR
00:38 8.1 °F 6.6 °F 1015.1 in Calm     90 % 0.0 in 0.0 W/m2 CLR
00:43 8.1 °F 6.7 °F 1015.1 in Calm     91 % 0.0 in 0.0 W/m2 CLR
00:48 8.0 °F 6.6 °F 1015.1 in Calm     91 % 0.0 in 0.0 W/m2 CLR
00:53 7.9 °F 6.6 °F 1015.5 in Calm     91 % 0.0 in 0.0 W/m2 CLR
00:58 7.9 °F 6.5 °F 1015.5 in Calm     91 % 0.0 in 0.0 W/m2 CLR
01:03 7.8 °F 6.4 °F 1015.5 in Calm     91 % 0.0 in 0.0 W/m2 CLR
01:08 7.9 °F 6.7 °F 1015.5 in Calm     92 % 0.0 in 0.0 W/m2 CLR
01:13 7.9 °F 6.6 °F 1015.8 in Calm     91 % 0.0 in 0.0 W/m2 CLR
01:18 7.9 °F 6.5 °F 1015.5 in Calm     91 % 0.0 in 0.0 W/m2 CLR
01:23 7.9 °F 6.5 °F 1015.8 in Calm     91 % 0.0 in 0.0 W/m2 CLR
01:28 7.9 °F 6.5 °F 1015.8 in Calm     91 % 0.0 in 0.0 W/m2 CLR
01:33 8.1 °F 6.8 °F 1015.8 in WSW 7.4 mph 7.4 mph 92 % 0.0 in 0.0 W/m2 CLR
01:38 8.4 °F 7.2 °F 1015.8 in SW 9.3 mph 9.3 mph 92 % 0.0 in 0.0 W/m2 CLR
01:43 8.6 °F 7.2 °F 1015.8 in West 5.6 mph 5.6 mph 91 % 0.0 in 0.0 W/m2 CLR
01:48 8.7 °F 7.2 °F 1015.5 in West 9.3 mph 9.3 mph 90 % 0.0 in 0.0 W/m2 CLR
01:53 8.8 °F 7.3 °F 1015.8 in Calm     90 % 0.0 in 0.0 W/m2 CLR
01:58 8.8 °F 7.1 °F 1015.8 in SSW 5.6 mph 5.6 mph 89 % 0.0 in 0.0 W/m2 CLR
01:59 8.8 °F 7.1 °F 1015.8 in SSW 5.6 mph   89 % 0.0 in 0.0 W/m2 CLR
02:04 8.7 °F 6.9 °F 1015.8 in Calm     89 % 0.0 in 0.0 W/m2 CLR
02:09 8.6 °F 7.1 °F 1015.8 in Calm     90 % 0.0 in 0.0 W/m2 CLR
02:14 8.6 °F 7.1 °F 1015.5 in Calm     90 % 0.0 in 0.0 W/m2 CLR
02:19 8.7 °F 7.1 °F 1015.5 in Calm     90 % 0.0 in 0.0 W/m2 CLR
02:24 8.6 °F 7.1 °F 1015.5 in Calm     90 % 0.0 in 0.0 W/m2 CLR
02:29 8.6 °F 7.1 °F 1015.1 in Calm     90 % 0.0 in 0.0 W/m2 CLR
02:34 8.8 °F 7.2 °F 1015.1 in West 5.6 mph 5.6 mph 90 % 0.0 in 0.0 W/m2 CLR
02:39 9.1 °F 7.3 °F 1015.1 in Calm     89 % 0.0 in 0.0 W/m2 CLR
02:44 9.1 °F 7.2 °F 1014.8 in WSW 9.7 mph 9.7 mph 88 % 0.0 in 0.0 W/m2 CLR
02:49 9.2 °F 7.3 °F 1014.8 in WSW 7.4 mph 7.4 mph 88 % 0.0 in 0.0 W/m2 CLR
02:54 9.3 °F 7.2 °F 1014.8 in WSW 6.4 mph 6.4 mph 87 % 0.0 in 0.0 W/m2 CLR
02:59 9.3 °F 7.2 °F 1014.8 in Calm     87 % 0.0 in 0.0 W/m2 CLR
03:04 9.2 °F 7.2 °F 1014.8 in Calm     87 % 0.0 in 0.0 W/m2 CLR
03:09 9.0 °F 7.1 °F 1014.8 in Calm     88 % 0.0 in 0.0 W/m2 CLR
03:14 8.8 °F 6.9 °F 1014.8 in Calm     88 % 0.0 in 0.0 W/m2 CLR
03:19 8.8 °F 6.9 °F 1014.8 in Calm     88 % 0.0 in 0.0 W/m2 CLR
03:24 8.8 °F 7.1 °F 1014.8 in Calm     89 % 0.0 in 0.0 W/m2 CLR
03:29 8.7 °F 7.0 °F 1014.4 in Calm     89 % 0.0 in 0.0 W/m2 CLR
03:34 8.9 °F 7.2 °F 1014.4 in Calm     89 % 0.0 in 0.0 W/m2 CLR
03:39 9.0 °F 7.1 °F 1014.4 in Calm     88 % 0.0 in 0.0 W/m2 CLR
03:44 9.3 °F 7.4 °F 1014.4 in SW 6.4 mph 6.4 mph 88 % 0.0 in 0.0 W/m2 CLR
03:49 9.6 °F 7.5 °F 1014.1 in Calm     87 % 0.0 in 0.0 W/m2 CLR
03:54 9.7 °F 7.5 °F 1014.1 in Calm     86 % 0.0 in 0.0 W/m2 CLR
03:59 9.7 °F 7.3 °F 1014.1 in Calm     85 % 0.0 in 0.0 W/m2 CLR
04:04 9.6 °F 7.2 °F 1014.1 in Calm     85 % 0.0 in 0.0 W/m2 CLR
04:09 9.5 °F 7.3 °F 1014.1 in Calm     86 % 0.0 in 0.0 W/m2 CLR
04:14 9.4 °F 7.2 °F 1014.1 in Calm     86 % 0.0 in 0.0 W/m2 CLR
04:19 9.4 °F 7.2 °F 1014.1 in Calm     86 % 0.0 in 0.0 W/m2 CLR
04:24 9.4 °F 7.2 °F 1014.1 in Calm     86 % 0.0 in 0.0 W/m2 CLR
04:29 9.4 °F 7.2 °F 1014.1 in Calm     86 % 0.0 in 0.0 W/m2 CLR
04:34 9.5 °F 7.3 °F 1013.8 in WSW 8.0 mph 8.0 mph 86 % 0.0 in 0.0 W/m2 CLR
04:39 9.8 °F 7.4 °F 1013.8 in WSW 9.3 mph 9.3 mph 85 % 0.0 in 0.0 W/m2 CLR
04:44 9.9 °F 7.4 °F 1013.8 in WSW 9.3 mph 9.3 mph 84 % 0.0 in 0.0 W/m2 CLR
04:49 9.9 °F 7.4 °F 1013.8 in SW 5.6 mph 5.6 mph 84 % 0.0 in 0.0 W/m2 CLR
04:54 9.8 °F 7.2 °F 1013.8 in Calm     84 % 0.0 in 0.0 W/m2 CLR
04:59 9.7 °F 7.3 °F 1013.8 in SW 5.6 mph 5.6 mph 85 % 0.0 in 0.0 W/m2 CLR
05:04 9.7 °F 7.2 °F 1013.4 in Calm     84 % 0.0 in 0.0 W/m2 CLR
05:09 9.7 °F 7.2 °F 1013.8 in WSW 3.7 mph   84 % 0.0 in 0.0 W/m2 CLR
05:14 9.8 °F 7.2 °F 1013.8 in Calm     84 % 0.0 in 0.0 W/m2 CLR
05:19 9.8 °F 7.0 °F 1013.8 in West 9.7 mph 9.7 mph 83 % 0.0 in 0.0 W/m2 CLR
05:24 10.1 °F 7.1 °F 1013.8 in West 9.7 mph 9.7 mph 82 % 0.0 in 0.0 W/m2 CLR
05:29 10.2 °F 7.1 °F 1013.8 in WNW 13.0 mph 13.0 mph 81 % 0.0 in 0.0 W/m2 CLR
05:34 10.3 °F 7.0 °F 1013.8 in West 9.7 mph 9.7 mph 80 % 0.0 in 0.0 W/m2 CLR
05:39 10.3 °F 6.8 °F 1013.8 in West 13.0 mph 13.0 mph 79 % 0.0 in 0.0 W/m2 CLR
05:44 10.3 °F 6.8 °F 1013.8 in WNW 13.0 mph 13.0 mph 79 % 0.0 in 0.0 W/m2 CLR
05:49 10.3 °F 6.5 °F 1013.8 in WNW 12.9 mph 12.9 mph 77 % 0.0 in 0.0 W/m2 CLR
05:54 10.4 °F 6.6 °F 1013.8 in West 11.1 mph 11.1 mph 77 % 0.0 in 0.0 W/m2 CLR
05:59 10.3 °F 6.5 °F 1013.8 in WNW 14.8 mph 14.8 mph 77 % 0.0 in 0.0 W/m2 CLR
06:04 10.3 °F 6.5 °F 1013.4 in West 8.0 mph 8.0 mph 77 % 0.0 in 0.0 W/m2 CLR
06:09 10.3 °F 6.4 °F 1013.4 in WSW 14.8 mph 14.8 mph 77 % 0.0 in 0.0 W/m2 CLR
06:14 10.2 °F 6.3 °F 1013.4 in West 16.7 mph 16.7 mph 77 % 0.0 in 0.0 W/m2 CLR
06:19 10.1 °F 6.3 °F 1013.4 in West 13.0 mph 13.0 mph 77 % 0.0 in 0.0 W/m2 CLR
06:24 10.0 °F 6.2 °F 1013.4 in West 9.3 mph 9.3 mph 77 % 0.0 in 0.0 W/m2 CLR
06:29 9.9 °F 6.1 °F 1013.4 in WSW 4.8 mph 4.8 mph 77 % 0.0 in 0.0 W/m2 CLR
06:34 10.0 °F 6.2 °F 1013.4 in WSW 11.1 mph 11.1 mph 77 % 0.0 in 0.0 W/m2 CLR
06:39 10.0 °F 6.2 °F 1013.4 in West 13.0 mph 13.0 mph 77 % 0.0 in 0.0 W/m2 CLR
06:44 10.0 °F 6.3 °F 1013.4 in WNW 14.8 mph 14.8 mph 78 % 0.0 in 0.0 W/m2 CLR
06:49 10.1 °F 6.4 °F 1013.4 in West 22.2 mph 22.2 mph 78 % 0.0 in 0.0 W/m2 CLR
06:54 10.1 °F 6.4 °F 1013.4 in WNW 18.5 mph 18.5 mph 78 % 0.0 in 0.0 W/m2 CLR
06:59 10.0 °F 6.3 °F 1013.4 in West 24.1 mph 24.1 mph 78 % 0.0 in 0.0 W/m2 CLR
07:05 9.9 °F 6.3 °F 1013.4 in West 13.0 mph 13.0 mph 78 % 0.0 in 0.0 W/m2 CLR
07:10 10.0 °F 6.3 °F 1013.4 in West 7.4 mph 7.4 mph 78 % 0.0 in 0.0 W/m2 CLR
07:15 9.9 °F 6.3 °F 1013.8 in NW 13.0 mph 13.0 mph 78 % 0.0 in 0.0 W/m2 CLR
07:20 9.9 °F 6.3 °F 1013.8 in West 16.7 mph 16.7 mph 78 % 0.0 in 0.0 W/m2 CLR
07:25 9.9 °F 6.3 °F 1013.8 in SW 14.8 mph 14.8 mph 78 % 0.0 in 0.0 W/m2 CLR
07:30 9.9 °F 6.4 °F 1013.8 in WNW 20.9 mph 20.9 mph 79 % 0.0 in 0.0 W/m2 CLR
07:35 9.9 °F 6.4 °F 1013.8 in West 11.1 mph 11.1 mph 79 % 0.0 in 0.0 W/m2 OVC
07:40 9.8 °F 6.4 °F 1013.8 in WSW 13.0 mph 13.0 mph 79 % 0.0 in 0.0 W/m2 OVC
07:45 9.8 °F 6.4 °F 1013.8 in WSW 14.8 mph 14.8 mph 79 % 0.0 in 0.0 W/m2 OVC
07:50 9.8 °F 6.6 °F 1014.1 in Calm     80 % 0.0 in 0.0 W/m2 OVC
07:55 9.8 °F 6.6 °F 1014.1 in SW 9.3 mph 9.3 mph 80 % 0.0 in 5.0 W/m2 OVC
08:00 9.8 °F 6.6 °F 1014.1 in WSW 9.7 mph 9.7 mph 80 % 0.0 in 5.0 W/m2 OVC
08:05 9.8 °F 6.6 °F 1014.1 in WSW 7.4 mph   80 % 0.0 in 9.0 W/m2 BKN
08:10 9.8 °F 6.6 °F 1014.4 in WNW 4.8 mph 4.8 mph 80 % 0.0 in 12.0 W/m2 BKN
08:15 9.8 °F 6.6 °F 1014.4 in WSW 13.0 mph 13.0 mph 80 % 0.0 in 16.0 W/m2 BKN
08:20 9.9 °F 6.6 °F 1014.8 in WNW 5.6 mph 5.6 mph 80 % 0.0 in 16.0 W/m2 BKN
08:25 9.9 °F 6.8 °F 1014.8 in NW 14.8 mph 14.8 mph 81 % 0.0 in 12.0 W/m2 BKN
08:30 9.9 °F 6.8 °F 1015.1 in West 14.8 mph 14.8 mph 81 % 0.0 in 14.0 W/m2 BKN
08:35 9.9 °F 6.8 °F 1015.1 in West 9.3 mph 9.3 mph 81 % 0.0 in 21.0 W/m2 BKN
08:40 9.9 °F 6.8 °F 1014.8 in West 13.0 mph 13.0 mph 81 % 0.0 in 33.0 W/m2 BKN
08:45 9.9 °F 6.9 °F 1015.1 in SW 9.3 mph 9.3 mph 82 % 0.0 in 49.0 W/m2 BKN
08:50 9.9 °F 7.0 °F 1015.1 in West 9.7 mph 9.7 mph 82 % 0.0 in 58.0 W/m2 SCT
08:55 9.9 °F 7.1 °F 1015.1 in West 16.7 mph 16.7 mph 83 % 0.0 in 40.0 W/m2 SCT
09:00 9.7 °F 7.2 °F 1015.1 in WNW 11.3 mph 11.3 mph 84 % 0.3 in 33.0 W/m2 RA
09:05 9.6 °F 7.2 °F 1015.5 in WNW 7.4 mph 7.7 mph 85 % 0.3 in 35.0 W/m2 BKN
09:10 9.5 °F 7.3 °F 1015.5 in WSW 7.4 mph 7.4 mph 86 % 0.5 in 32.0 W/m2 RA
09:15 9.4 °F 7.4 °F 1015.5 in West 3.7 mph   87 % 0.5 in 28.0 W/m2 BKN
09:20 9.4 °F 7.5 °F 1015.1 in WSW 7.4 mph 7.4 mph 88 % 0.5 in 46.0 W/m2 BKN
09:25 9.4 °F 7.5 °F 1015.1 in West 8.0 mph 8.0 mph 88 % 0.5 in 62.0 W/m2 BKN
09:30 9.5 °F 7.6 °F 1015.1 in West 13.0 mph 13.0 mph 88 % 0.5 in 70.0 W/m2 SCT
09:35 9.6 °F 7.7 °F 1015.1 in West 5.6 mph 5.6 mph 88 % 0.5 in 86.0 W/m2 FEW
09:40 9.7 °F 7.8 °F 1015.1 in WNW 5.6 mph 5.6 mph 88 % 0.5 in 93.0 W/m2 FEW
09:45 9.8 °F 7.9 °F 1015.1 in Calm     88 % 0.5 in 84.0 W/m2 CLR
09:50 9.8 °F 7.9 °F 1015.1 in West 5.6 mph 5.6 mph 88 % 0.5 in 67.0 W/m2 FEW
09:55 9.9 °F 8.0 °F 1015.1 in WSW 8.0 mph 8.0 mph 88 % 0.3 in 69.0 W/m2 FEW
10:00 9.9 °F 8.1 °F 1015.1 in WSW 7.4 mph 7.4 mph 88 % 0.3 in 58.0 W/m2 FEW
10:05 10.0 °F 7.9 °F 1015.1 in WSW 13.0 mph 13.0 mph 87 % 0.3 in 60.0 W/m2 SCT
10:10 10.1 °F 8.1 °F 1015.1 in WSW 9.7 mph 9.7 mph 87 % 0.0 in 56.0 W/m2 SCT
10:15 10.2 °F 8.0 °F 1015.1 in West 16.1 mph 16.1 mph 86 % 0.0 in 77.0 W/m2 SCT
10:20 10.3 °F 7.9 °F 1015.1 in West 13.0 mph 13.0 mph 85 % 0.0 in 95.0 W/m2 FEW
10:25 10.5 °F 8.3 °F 1015.5 in West 5.6 mph 5.6 mph 86 % 0.0 in 116.0 W/m2 CLR
10:30 10.6 °F 8.2 °F 1015.5 in West 13.0 mph 13.0 mph 85 % 0.0 in 153.0 W/m2 CLR
10:35 10.7 °F 8.3 °F 1015.1 in West 16.7 mph 16.7 mph 85 % 0.0 in 158.0 W/m2 CLR
10:40 10.9 °F 8.3 °F 1015.1 in West 13.0 mph 13.0 mph 84 % 0.0 in 163.0 W/m2 CLR
10:45 11.0 °F 8.4 °F 1015.1 in West 11.1 mph 11.1 mph 84 % 0.0 in 146.0 W/m2 CLR
10:50 11.1 °F 8.3 °F 1015.1 in WSW 18.5 mph 18.5 mph 83 % 0.0 in 162.0 W/m2 CLR
10:55 11.3 °F 8.7 °F 1015.1 in WNW 16.7 mph 16.7 mph 84 % 0.0 in 214.0 W/m2 CLR
11:00 11.4 °F 8.4 °F 1015.1 in West 20.4 mph 20.4 mph 82 % 0.0 in 230.0 W/m2 CLR
11:05 11.6 °F 8.4 °F 1015.1 in WNW 29.6 mph 29.6 mph 81 % 0.0 in 257.0 W/m2 CLR
11:10 11.8 °F 8.6 °F 1015.1 in NW 31.5 mph 31.5 mph 81 % 0.0 in 244.0 W/m2 CLR
11:15 11.8 °F 8.4 °F 1015.1 in NW 16.7 mph 16.7 mph 80 % 0.0 in 258.0 W/m2 CLR
11:20 11.8 °F 8.1 °F 1015.1 in NNW 33.3 mph 33.3 mph 78 % 0.0 in 274.0 W/m2 CLR
11:25 11.8 °F 8.1 °F 1015.1 in NW 32.2 mph 32.2 mph 78 % 0.0 in 309.0 W/m2 CLR
11:26 11.8 °F 8.1 °F 1015.1 in NW 31.5 mph 31.5 mph 78 % 0.0 in 294.0 W/m2 CLR
11:31 11.8 °F 8.1 °F 1015.5 in NNW 31.5 mph 31.5 mph 78 % 0.0 in 294.0 W/m2 CLR
11:36 11.9 °F 8.2 °F 1015.1 in WNW 18.5 mph 18.5 mph 78 % 0.0 in 241.0 W/m2 CLR
11:41 11.9 °F 8.1 °F 1015.1 in WNW 25.9 mph 25.9 mph 77 % 0.0 in 237.0 W/m2 CLR
11:46 11.9 °F 7.8 °F 1015.5 in NW 32.2 mph 32.2 mph 76 % 0.0 in 250.0 W/m2 CLR
11:51 11.8 °F 7.7 °F 1015.1 in WNW 25.9 mph 25.9 mph 76 % 0.0 in 304.0 W/m2 CLR
11:56 11.9 °F 7.8 °F 1015.1 in NNW 25.9 mph 25.9 mph 76 % 0.0 in 299.0 W/m2 CLR
12:01 11.9 °F 7.8 °F 1015.1 in WNW 37.0 mph 37.0 mph 76 % 0.0 in 257.0 W/m2 CLR
12:06 11.9 °F 7.8 °F 1015.1 in WNW 22.2 mph 22.2 mph 76 % 0.0 in 285.0 W/m2 CLR
12:11 12.0 °F 7.9 °F 1015.1 in WNW 25.7 mph 25.7 mph 76 % 0.0 in 265.0 W/m2 CLR
12:16 12.0 °F 7.7 °F 1015.1 in NW 27.8 mph 27.8 mph 75 % 0.0 in 279.0 W/m2 CLR
12:21 12.1 °F 7.8 °F 1015.1 in NW 27.8 mph 27.8 mph 75 % 0.0 in 329.0 W/m2 CLR
12:26 12.1 °F 7.2 °F 1015.1 in NNW 31.5 mph 31.5 mph 72 % 0.0 in 352.0 W/m2 CLR
12:31 12.2 °F 7.5 °F 1015.1 in NW 31.5 mph 31.5 mph 73 % 0.0 in 348.0 W/m2 CLR
12:36 12.3 °F 7.4 °F 1015.1 in WNW 31.5 mph 31.5 mph 72 % 0.0 in 413.0 W/m2 CLR
12:41 12.5 °F 7.6 °F 1015.1 in NNW 31.5 mph 31.5 mph 72 % 0.0 in 506.0 W/m2 CLR
12:46 12.7 °F 7.3 °F 1015.1 in NW 31.5 mph 31.5 mph 70 % 0.0 in 466.0 W/m2 CLR
12:51 12.8 °F 7.7 °F 1015.1 in NW 22.2 mph 22.2 mph 71 % 0.0 in 420.0 W/m2 CLR
12:56 13.1 °F 7.9 °F 1014.8 in WNW 22.2 mph 22.2 mph 71 % 0.0 in 441.0 W/m2 CLR
13:01 13.2 °F 7.6 °F 1014.8 in WNW 29.6 mph 29.6 mph 69 % 0.0 in 448.0 W/m2 CLR
13:06 13.2 °F 7.4 °F 1014.8 in NW 27.8 mph 27.8 mph 68 % 0.0 in 396.0 W/m2 CLR
13:11 13.0 °F 7.0 °F 1014.8 in NNW 29.6 mph 29.6 mph 67 % 0.0 in 369.0 W/m2 CLR
13:16 12.7 °F 6.7 °F 1014.8 in NNW 29.6 mph 29.6 mph 67 % 0.0 in 306.0 W/m2 CLR
13:21 12.4 °F 6.3 °F 1015.1 in NNW 42.6 mph 42.6 mph 66 % 0.0 in 316.0 W/m2 CLR
13:26 12.4 °F 6.4 °F 1015.1 in NW 35.2 mph 35.2 mph 67 % 0.0 in 272.0 W/m2 CLR
13:32 12.3 °F 6.4 °F 1014.8 in WNW 35.2 mph 35.2 mph 67 % 0.0 in 260.0 W/m2 CLR
13:37 12.3 °F 6.2 °F 1015.1 in NNW 35.2 mph 35.2 mph 66 % 0.0 in 348.0 W/m2 CLR
13:42 12.3 °F 6.1 °F 1015.1 in WNW 31.5 mph 31.5 mph 66 % 0.0 in 359.0 W/m2 CLR
13:47 12.3 °F 5.9 °F 1014.8 in NW 33.3 mph 33.3 mph 65 % 0.0 in 464.0 W/m2 CLR
13:52 12.6 °F 6.4 °F 1014.8 in West 25.7 mph 25.7 mph 66 % 0.0 in 510.0 W/m2 CLR
13:57 12.9 °F 6.2 °F 1014.8 in WNW 37.0 mph 37.0 mph 64 % 0.0 in 621.0 W/m2 CLR
14:02 13.2 °F 6.3 °F 1014.8 in WNW 31.5 mph 31.5 mph 63 % 0.0 in 636.0 W/m2 CLR
14:07 13.2 °F 6.3 °F 1014.8 in NNW 31.5 mph 31.5 mph 63 % 0.0 in 621.0 W/m2 CLR
14:12 13.3 °F 5.9 °F 1014.4 in NW 35.2 mph 35.2 mph 61 % 0.0 in 608.0 W/m2 CLR
14:17 13.4 °F 6.0 °F 1014.4 in NW 33.3 mph 33.3 mph 61 % 0.0 in 485.0 W/m2 CLR
14:22 13.5 °F 6.1 °F 1014.8 in NW 31.5 mph 31.5 mph 61 % 0.0 in 571.0 W/m2 CLR
14:27 13.6 °F 5.7 °F 1014.8 in NW 37.0 mph 37.0 mph 59 % 0.0 in 570.0 W/m2 CLR
14:32 13.8 °F 6.4 °F 1014.4 in West 18.5 mph 18.5 mph 61 % 0.0 in 543.0 W/m2 CLR
14:37 14.1 °F 5.9 °F 1014.4 in WNW 37.0 mph 37.0 mph 58 % 0.0 in 501.0 W/m2 CLR
14:42 13.8 °F 5.4 °F 1014.4 in NW 35.2 mph 35.2 mph 57 % 0.0 in 371.0 W/m2 CLR
14:47 13.6 °F 5.7 °F 1014.8 in NNW 33.3 mph 33.3 mph 59 % 0.0 in 531.0 W/m2 CLR
14:52 13.6 °F 5.7 °F 1014.4 in WNW 31.5 mph 31.5 mph 59 % 0.0 in 475.0 W/m2 CLR
14:57 13.8 °F 5.9 °F 1014.4 in WNW 27.8 mph 27.8 mph 59 % 0.0 in 452.0 W/m2 CLR
15:02 13.8 °F 5.7 °F 1014.4 in NW 31.5 mph 31.5 mph 58 % 0.0 in 431.0 W/m2 CLR
15:07 13.9 °F 6.0 °F 1014.4 in WNW 24.1 mph 24.1 mph 59 % 0.0 in 436.0 W/m2 CLR
15:12 13.8 °F 5.4 °F 1014.4 in NW 42.6 mph 42.6 mph 57 % 0.0 in 371.0 W/m2 CLR
15:17 13.8 °F 5.7 °F 1014.4 in NW 24.1 mph 24.1 mph 58 % 0.0 in 466.0 W/m2 CLR
15:22 13.8 °F 5.4 °F 1014.4 in WNW 25.9 mph 25.9 mph 57 % 0.0 in 496.0 W/m2 CLR
15:27 13.8 °F 5.4 °F 1014.4 in WNW 24.1 mph 24.1 mph 57 % 0.0 in 431.0 W/m2 CLR
15:32 13.8 °F 5.2 °F 1014.4 in NW 31.5 mph 31.5 mph 56 % 0.0 in 399.0 W/m2 CLR
15:37 13.6 °F 5.0 °F 1014.4 in North 38.9 mph 38.9 mph 56 % 0.0 in 399.0 W/m2 CLR
15:42 13.6 °F 5.5 °F 1014.4 in NW 27.4 mph 27.4 mph 58 % 0.0 in 461.0 W/m2 CLR
15:47 13.8 °F 5.2 °F 1014.4 in NNW 38.6 mph 38.6 mph 56 % 0.0 in 424.0 W/m2 CLR
15:52 13.6 °F 5.0 °F 1014.4 in West 38.9 mph 38.9 mph 56 % 0.0 in 394.0 W/m2 CLR
15:57 13.6 °F 5.0 °F 1014.1 in West 29.6 mph 29.6 mph 56 % 0.0 in 410.0 W/m2 CLR
16:02 13.7 °F 5.1 °F 1014.1 in NW 25.9 mph 25.9 mph 56 % 0.0 in 313.0 W/m2 CLR
16:07 13.5 °F 4.6 °F 1014.4 in NW 33.3 mph 33.3 mph 55 % 0.0 in 371.0 W/m2 CLR
16:12 13.4 °F 4.8 °F 1014.4 in WNW 27.8 mph 27.8 mph 56 % 0.0 in 322.0 W/m2 CLR
16:17 13.6 °F 4.9 °F 1014.4 in NNW 31.5 mph 31.5 mph 56 % 0.0 in 338.0 W/m2 CLR
16:22 13.6 °F 5.2 °F 1014.8 in NNW 25.9 mph 25.9 mph 57 % 0.0 in 336.0 W/m2 CLR
16:27 13.7 °F 4.6 °F 1014.8 in WNW 31.5 mph 31.5 mph 54 % 0.0 in 316.0 W/m2 CLR
16:32 13.7 °F 5.1 °F 1014.8 in WNW 24.1 mph 24.1 mph 56 % 0.0 in 320.0 W/m2 CLR
16:37 13.6 °F 4.7 °F 1014.8 in WNW 22.2 mph 22.2 mph 55 % 0.0 in 267.0 W/m2 CLR
16:42 13.6 °F 5.0 °F 1014.8 in WNW 18.5 mph 18.5 mph 56 % 0.0 in 290.0 W/m2 CLR
16:47 13.6 °F 5.2 °F 1014.8 in NW 35.2 mph 35.2 mph 57 % 0.0 in 269.0 W/m2 CLR
16:52 13.4 °F 4.8 °F 1014.8 in WNW 31.5 mph 31.5 mph 56 % 0.0 in 257.0 W/m2 CLR
16:57 13.2 °F 4.6 °F 1014.8 in NW 31.5 mph 31.5 mph 56 % 0.0 in 243.0 W/m2 CLR
17:02 13.2 °F 4.6 °F 1014.8 in WNW 31.5 mph 31.5 mph 56 % 0.0 in 227.0 W/m2 CLR
17:03 13.2 °F 4.6 °F 1014.8 in West 31.5 mph 31.5 mph 56 % 0.0 in 223.0 W/m2 CLR
17:08 13.2 °F 4.6 °F 1014.8 in WNW 18.5 mph 18.5 mph 56 % 0.0 in 223.0 W/m2 CLR
17:13 13.2 °F 4.6 °F 1014.8 in NW 27.8 mph 27.8 mph 56 % 0.0 in 199.0 W/m2 CLR
17:18 13.1 °F 4.5 °F 1014.8 in NW 27.8 mph 27.8 mph 56 % 0.0 in 181.0 W/m2 CLR
17:23 13.0 °F 4.4 °F 1014.8 in NNW 27.8 mph 27.8 mph 56 % 0.0 in 167.0 W/m2 CLR
17:28 13.0 °F 4.7 °F 1014.8 in NNW 31.5 mph 31.5 mph 57 % 0.0 in 141.0 W/m2 CLR
17:33 12.8 °F 4.5 °F 1014.8 in WNW 31.5 mph 31.5 mph 57 % 0.0 in 137.0 W/m2 CLR
17:38 12.8 °F 4.4 °F 1014.8 in NW 27.8 mph 27.8 mph 57 % 0.0 in 114.0 W/m2 CLR
17:43 12.7 °F 4.4 °F 1015.1 in WNW 29.0 mph 29.0 mph 57 % 0.0 in 100.0 W/m2 CLR
17:48 12.6 °F 4.3 °F 1015.1 in NW 27.8 mph 27.8 mph 57 % 0.0 in 83.0 W/m2 FEW
17:53 12.4 °F 4.1 °F 1015.1 in NW 32.2 mph 32.2 mph 57 % 0.0 in 77.0 W/m2 FEW
17:58 12.3 °F 4.0 °F 1015.5 in NW 27.4 mph 27.4 mph 57 % 0.0 in 63.0 W/m2 FEW
18:03 12.1 °F 4.1 °F 1015.5 in West 29.6 mph 29.6 mph 58 % 0.0 in 53.0 W/m2 SCT
18:08 12.0 °F 4.0 °F 1015.5 in WNW 31.5 mph 31.5 mph 58 % 0.0 in 47.0 W/m2 SCT
18:13 11.9 °F 3.9 °F 1015.5 in WNW 24.1 mph 24.1 mph 58 % 0.0 in 37.0 W/m2 BKN
18:18 11.8 °F 3.8 °F 1015.8 in West 27.8 mph 27.8 mph 58 % 0.0 in 30.0 W/m2 BKN
18:23 11.6 °F 3.9 °F 1015.8 in WNW 24.1 mph 24.1 mph 59 % 0.0 in 23.0 W/m2 BKN
18:28 11.4 °F 3.9 °F 1015.8 in NW 29.6 mph 29.6 mph 60 % 0.0 in 16.0 W/m2 BKN
18:33 11.3 °F 4.1 °F 1016.1 in NW 31.5 mph 31.5 mph 61 % 0.0 in 11.0 W/m2 BKN
18:38 11.2 °F 3.9 °F 1016.1 in West 25.7 mph 25.7 mph 61 % 0.0 in 7.0 W/m2 BKN
18:43 11.1 °F 3.9 °F 1016.5 in West 33.3 mph 33.3 mph 61 % 0.0 in 0.0 W/m2 OVC
18:48 10.9 °F 3.7 °F 1016.5 in WNW 18.5 mph 18.5 mph 61 % 0.0 in 0.0 W/m2 OVC
18:53 10.8 °F 3.6 °F 1016.5 in West 18.5 mph 18.5 mph 61 % 0.0 in 0.0 W/m2 OVC
18:58 10.8 °F 3.6 °F 1016.5 in West 9.3 mph 9.3 mph 61 % 0.0 in 0.0 W/m2 CLR
19:03 10.6 °F 3.2 °F 1016.8 in WNW 24.1 mph 24.1 mph 60 % 0.0 in 0.0 W/m2 CLR
19:08 10.5 °F 3.3 °F 1016.8 in West 18.5 mph 18.5 mph 61 % 0.0 in 0.0 W/m2 CLR
19:13 10.5 °F 3.1 °F 1017.2 in WNW 27.8 mph 27.8 mph 60 % 0.0 in 0.0 W/m2 CLR
19:18 10.3 °F 3.1 °F 1017.2 in WNW 20.4 mph 20.4 mph 61 % 0.0 in 0.0 W/m2 CLR
19:23 10.2 °F 3.4 °F 1017.2 in WNW 18.5 mph 18.5 mph 63 % 0.0 in 0.0 W/m2 CLR
19:28 10.1 °F 3.3 °F 1017.2 in West 29.6 mph 29.6 mph 63 % 0.0 in 0.0 W/m2 CLR
19:33 9.9 °F 3.4 °F 1017.5 in West 25.9 mph 25.9 mph 64 % 0.0 in 0.0 W/m2 CLR
19:38 9.9 °F 3.4 °F 1017.5 in West 24.1 mph 24.1 mph 64 % 0.0 in 0.0 W/m2 CLR
19:43 9.9 °F 3.4 °F 1017.5 in West 33.3 mph 33.3 mph 64 % 0.0 in 0.0 W/m2 CLR
19:48 9.7 °F 3.2 °F 1017.5 in West 20.4 mph 20.4 mph 64 % 0.0 in 0.0 W/m2 CLR
19:53 9.6 °F 3.3 °F 1017.5 in West 24.1 mph 24.1 mph 65 % 0.0 in 0.0 W/m2 CLR
19:58 9.4 °F 2.9 °F 1017.8 in WNW 24.1 mph 24.1 mph 64 % 0.0 in 0.0 W/m2 CLR
20:03 9.3 °F 3.1 °F 1017.8 in West 30.6 mph 30.6 mph 65 % 0.0 in 0.0 W/m2 CLR
20:08 9.3 °F 2.8 °F 1017.8 in WNW 24.1 mph 24.1 mph 64 % 0.0 in 0.0 W/m2 CLR
20:13 9.2 °F 2.9 °F 1017.8 in NW 31.5 mph 31.5 mph 65 % 0.0 in 0.0 W/m2 CLR
20:18 9.1 °F 2.9 °F 1018.2 in NW 29.6 mph 29.6 mph 65 % 0.0 in 0.0 W/m2 CLR
20:23 9.0 °F 2.8 °F 1018.2 in WNW 18.5 mph 18.5 mph 65 % 0.0 in 0.0 W/m2 CLR
20:28 9.0 °F 2.8 °F 1018.2 in WNW 16.7 mph 16.7 mph 65 % 0.0 in 0.0 W/m2 CLR
20:33 9.1 °F 2.6 °F 1018.2 in WNW 20.4 mph 20.4 mph 64 % 0.0 in 0.0 W/m2 CLR
20:38 9.1 °F 2.6 °F 1018.2 in West 19.3 mph 19.3 mph 64 % 0.0 in 0.0 W/m2 CLR
20:43 9.0 °F 2.3 °F 1018.2 in West 24.1 mph 24.1 mph 63 % 0.0 in 0.0 W/m2 CLR
20:48 9.0 °F 2.3 °F 1018.5 in West 27.8 mph 27.8 mph 63 % 0.0 in 0.0 W/m2 CLR
20:53 9.0 °F 2.3 °F 1018.5 in WNW 18.5 mph 18.5 mph 63 % 0.0 in 0.0 W/m2 CLR
20:58 8.9 °F 2.4 °F 1018.5 in West 18.5 mph 18.5 mph 64 % 0.0 in 0.0 W/m2 CLR
21:03 8.7 °F 2.3 °F 1018.5 in West 13.0 mph 13.0 mph 64 % 0.0 in 0.0 W/m2 CLR
21:08 8.6 °F 2.2 °F 1018.8 in WSW 14.8 mph 14.8 mph 64 % 0.0 in 0.0 W/m2 CLR
21:13 8.6 °F 2.2 °F 1018.8 in West 20.9 mph 20.9 mph 64 % 0.0 in 0.0 W/m2 CLR
21:18 8.6 °F 1.9 °F 1019.2 in West 18.5 mph 18.5 mph 63 % 0.0 in 0.0 W/m2 CLR
21:23 8.6 °F 1.9 °F 1019.2 in West 20.4 mph 20.4 mph 63 % 0.0 in 0.0 W/m2 CLR
21:28 8.6 °F 1.9 °F 1019.2 in WNW 25.9 mph 25.9 mph 63 % 0.0 in 0.0 W/m2 CLR
21:33 8.6 °F 2.1 °F 1019.2 in WNW 24.1 mph 24.1 mph 64 % 0.0 in 0.0 W/m2 CLR
21:38 8.4 °F 2.0 °F 1019.2 in West 22.2 mph 22.2 mph 64 % 0.0 in 0.0 W/m2 CLR
21:43 8.3 °F 1.9 °F 1019.2 in WNW 24.1 mph 24.1 mph 64 % 0.0 in 0.0 W/m2 CLR
21:48 8.3 °F 1.9 °F 1019.2 in West 20.4 mph 20.4 mph 64 % 0.0 in 0.0 W/m2 CLR
21:53 8.3 °F 1.9 °F 1019.5 in West 33.8 mph 33.8 mph 64 % 0.0 in 0.0 W/m2 CLR
21:58 8.2 °F 2.0 °F 1019.5 in West 22.2 mph 22.2 mph 65 % 0.0 in 0.0 W/m2 CLR
22:03 8.2 °F 2.0 °F 1019.5 in West 25.9 mph 25.9 mph 65 % 0.0 in 0.0 W/m2 CLR
22:09 8.2 °F 2.0 °F 1019.5 in West 27.8 mph 27.8 mph 65 % 0.0 in 0.0 W/m2 CLR
22:14 8.1 °F 1.9 °F 1019.5 in WSW 18.5 mph 19.1 mph 65 % 0.0 in 0.0 W/m2 CLR
22:19 8.1 °F 1.9 °F 1019.5 in WNW 18.5 mph 18.5 mph 65 % 0.0 in 0.0 W/m2 CLR
22:24 7.9 °F 1.8 °F 1019.5 in West 20.4 mph 20.4 mph 65 % 0.0 in 0.0 W/m2 CLR
22:29 8.0 °F 1.8 °F 1019.5 in West 24.1 mph 24.1 mph 65 % 0.0 in 0.0 W/m2 CLR
22:34 7.9 °F 1.8 °F 1019.5 in WSW 25.9 mph 25.9 mph 65 % 0.0 in 0.0 W/m2 CLR
22:39 7.9 °F 1.8 °F 1019.9 in West 22.2 mph 22.2 mph 65 % 0.0 in 0.0 W/m2 CLR
22:44 7.9 °F 1.5 °F 1019.9 in West 29.6 mph 29.6 mph 64 % 0.0 in 0.0 W/m2 CLR
22:49 7.9 °F 1.5 °F 1019.9 in West 20.4 mph 20.4 mph 64 % 0.0 in 0.0 W/m2 CLR
22:54 7.8 °F 1.4 °F 1019.9 in West 29.6 mph 29.6 mph 64 % 0.0 in 0.0 W/m2 CLR
22:59 7.8 °F 1.4 °F 1019.9 in West 27.8 mph 27.8 mph 64 % 0.0 in 0.0 W/m2 CLR
23:04 7.8 °F 1.4 °F 1019.9 in West 31.5 mph 31.5 mph 64 % 0.0 in 0.0 W/m2 CLR
23:09 7.8 °F 1.2 °F 1019.9 in WNW 25.9 mph 25.9 mph 63 % 0.0 in 0.0 W/m2 CLR
23:14 7.7 °F 1.3 °F 1020.2 in West 30.6 mph 30.6 mph 64 % 0.0 in 0.0 W/m2 CLR
23:24 7.6 °F 1.2 °F 1019.9 in West 18.5 mph 18.5 mph 64 % 0.0 in 0.0 W/m2 CLR
23:30 7.6 °F 1.2 °F 1019.9 in SW 18.5 mph 18.5 mph 64 % 0.0 in 0.0 W/m2 CLR
23:35 7.4 °F 1.1 °F 1019.9 in WSW 14.8 mph 14.8 mph 64 % 0.0 in 0.0 W/m2 CLR
23:40 7.4 °F 1.0 °F 1020.2 in WSW 16.7 mph 16.7 mph 64 % 0.0 in 0.0 W/m2 CLR
23:45 7.3 °F 0.9 °F 1020.2 in West 12.9 mph 12.9 mph 64 % 0.0 in 0.0 W/m2 CLR
23:50 7.2 °F 1.1 °F 1020.2 in West 13.0 mph 13.0 mph 65 % 0.0 in 0.0 W/m2 CLR
23:55 7.2 °F 1.1 °F 1020.2 in WSW 18.5 mph 18.5 mph 65 % 0.0 in 0.0 W/m2 CLR
Lo Temps de Massalio
Compliments of Weather Underground - 1.25 mb